Time;durP1;ratioP1;P1;durP2;ratioP2;P2;SDS_P1;SDS_P2;PMS_P1;PMS_P2;Temp;Humidity;BMP_temperature;BMP_pressure;BME280_temperature;BME280_humidity;BME280_pressure;Samples;Min_cycle;Max_cycle;Signal;HPM_P1;HPM_P2
2022/05/01 00:01:07;;;;;;;;;;;11.30;70.80;;;;;;5077411;28;20306;-68
2022/05/01 00:03:34;;;;;;;;;;;11.30;70.40;;;;;;5075250;28;19908;-68
2022/05/01 00:06:00;;;;;;;;;;;11.30;70.40;;;;;;5074455;28;19912;-68
2022/05/01 00:08:25;;;;;;;;;;;11.30;70.50;;;;;;5082741;28;20365;-68
2022/05/01 00:10:51;;;;;;;;;;;11.30;70.60;;;;;;5081495;28;19923;-68
2022/05/01 00:13:16;;;;;;;;;;;11.20;70.40;;;;;;5076598;28;19974;-68
2022/05/01 00:15:42;;;;;;;;;;;11.20;70.40;;;;;;5083637;28;19921;-68
2022/05/01 00:18:08;;;;;;;;;;;11.20;70.60;;;;;;5075368;28;19916;-68
2022/05/01 00:20:34;;;;;;;;;;;11.20;70.50;;;;;;5082551;28;19914;-68
2022/05/01 00:22:59;;;;;;;;;;;11.20;70.60;;;;;;5083456;28;20035;-68
2022/05/01 00:25:25;;;;;;;;;;;11.20;70.80;;;;;;5080572;28;19912;-68
2022/05/01 00:27:50;;;;;;;;;;;11.10;70.60;;;;;;5075514;28;19917;-68
2022/05/01 00:30:16;;;;;;;;;;;11.10;70.70;;;;;;5076208;28;19912;-68
2022/05/01 00:38:10;;;;;;;;;;;11.10;71.00;;;;;;5079033;28;19989;-68
2022/05/01 00:40:36;;;;;;;;;;;11.10;71.00;;;;;;5076586;28;20300;-68
2022/05/01 00:43:05;;;;;;;;;;;11.00;71.00;;;;;;5068951;28;20485;-68
2022/05/01 00:45:31;;;;;;;;;;;11.00;71.10;;;;;;5082023;28;19995;-68
2022/05/01 00:47:57;;;;;;;;;;;11.00;71.00;;;;;;5075325;28;19963;-68
2022/05/01 00:50:22;;;;;;;;;;;11.00;71.50;;;;;;5077276;28;19951;-68
2022/05/01 00:52:48;;;;;;;;;;;11.00;71.50;;;;;;5075801;28;19919;-68
2022/05/01 00:55:13;;;;;;;;;;;11.00;72.10;;;;;;5091370;28;20006;-68
2022/05/01 00:57:39;;;;;;;;;;;10.90;72.40;;;;;;5084248;28;20007;-68
2022/05/01 01:00:05;;;;;;;;;;;10.90;71.40;;;;;;5086108;28;19926;-68
2022/05/01 01:02:33;;;;;;;;;;;10.90;71.60;;;;;;5074150;28;20277;-68
2022/05/01 01:04:59;;;;;;;;;;;10.90;72.10;;;;;;5072073;28;19939;-68
2022/05/01 01:07:28;;;;;;;;;;;10.90;71.80;;;;;;5081291;28;20324;-68
2022/05/01 01:09:53;;;;;;;;;;;10.80;72.40;;;;;;5080820;28;19912;-68
2022/05/01 01:15:08;;;;;;;;;;;10.80;72.80;;;;;;5077277;28;19920;-68
2022/05/01 01:17:35;;;;;;;;;;;10.80;72.80;;;;;;5081431;28;20672;-68
2022/05/01 01:20:01;;;;;;;;;;;10.80;72.80;;;;;;5080430;28;19927;-68
2022/05/01 01:22:26;;;;;;;;;;;10.80;73.00;;;;;;5080384;28;19916;-68
2022/05/01 01:24:53;;;;;;;;;;;10.70;73.10;;;;;;5078678;28;20418;-68
2022/05/01 01:27:18;;;;;;;;;;;10.70;73.20;;;;;;5074781;28;19928;-68
2022/05/01 01:32:29;;;;;;;;;;;10.70;73.00;;;;;;5071474;28;19924;-68
2022/05/01 01:34:55;;;;;;;;;;;10.70;73.30;;;;;;5078067;28;19912;-68
2022/05/01 01:37:22;;;;;;;;;;;10.70;73.30;;;;;;5085750;28;19917;-68
2022/05/01 01:39:48;;;;;;;;;;;10.70;73.40;;;;;;5075633;28;19924;-68
2022/05/01 01:42:15;;;;;;;;;;;10.60;73.40;;;;;;5073759;28;20665;-68
2022/05/01 01:44:41;;;;;;;;;;;10.60;73.30;;;;;;5069894;28;19938;-68
2022/05/01 01:47:06;;;;;;;;;;;10.60;73.50;;;;;;5073831;28;19938;-68
2022/05/01 01:49:32;;;;;;;;;;;10.50;73.60;;;;;;5079629;28;19916;-68
2022/05/01 01:51:58;;;;;;;;;;;10.50;73.50;;;;;;5069437;28;19932;-68
2022/05/01 01:54:24;;;;;;;;;;;10.50;73.50;;;;;;5074311;28;19923;-68
2022/05/01 01:56:50;;;;;;;;;;;10.50;73.70;;;;;;5078916;28;19916;-68
2022/05/01 01:59:15;;;;;;;;;;;10.50;73.80;;;;;;5079404;28;19930;-68
2022/05/01 02:01:42;;;;;;;;;;;10.40;73.60;;;;;;5078095;28;20422;-68
2022/05/01 02:04:08;;;;;;;;;;;10.50;73.90;;;;;;5081735;28;19936;-67
2022/05/01 02:06:33;;;;;;;;;;;10.40;73.90;;;;;;5079094;28;19908;-67
2022/05/01 02:08:59;;;;;;;;;;;10.40;73.90;;;;;;5075779;28;20715;-67
2022/05/01 02:11:24;;;;;;;;;;;10.40;73.90;;;;;;5079102;28;19961;-68
2022/05/01 02:13:50;;;;;;;;;;;10.40;73.80;;;;;;5080742;28;19916;-67
2022/05/01 02:16:17;;;;;;;;;;;10.40;73.90;;;;;;5080329;28;19919;-67
2022/05/01 02:18:43;;;;;;;;;;;10.40;74.00;;;;;;5082758;28;19961;-67
2022/05/01 02:23:52;;;;;;;;;;;10.30;74.00;;;;;;5079982;28;19918;-67
2022/05/01 02:26:18;;;;;;;;;;;10.30;74.20;;;;;;5074437;28;19936;-68
2022/05/01 02:28:44;;;;;;;;;;;10.30;74.20;;;;;;5083299;28;19931;-68
2022/05/01 02:31:09;;;;;;;;;;;10.30;74.20;;;;;;5077901;28;19926;-67
2022/05/01 02:33:36;;;;;;;;;;;10.20;74.10;;;;;;5081139;28;19912;-68
2022/05/01 02:36:05;;;;;;;;;;;10.20;74.20;;;;;;5084729;28;19987;-68
2022/05/01 02:38:30;;;;;;;;;;;10.20;74.20;;;;;;5075447;28;20313;-67
2022/05/01 02:40:56;;;;;;;;;;;10.20;74.40;;;;;;5085033;28;19927;-67
2022/05/01 02:43:21;;;;;;;;;;;10.20;74.50;;;;;;5074173;28;19916;-67
2022/05/01 02:45:47;;;;;;;;;;;10.20;74.40;;;;;;5082530;28;19955;-67
2022/05/01 02:48:12;;;;;;;;;;;10.10;74.40;;;;;;5078084;28;19924;-67
2022/05/01 02:50:38;;;;;;;;;;;10.10;74.50;;;;;;5081122;28;19948;-67
2022/05/01 02:53:04;;;;;;;;;;;10.10;74.50;;;;;;5081137;28;19936;-67
2022/05/01 02:55:29;;;;;;;;;;;10.10;74.60;;;;;;5089583;28;19913;-67
2022/05/01 02:57:55;;;;;;;;;;;10.10;74.50;;;;;;5078120;28;19927;-67
2022/05/01 03:00:20;;;;;;;;;;;10.00;74.60;;;;;;5080613;28;20008;-67
2022/05/01 03:02:46;;;;;;;;;;;10.00;74.60;;;;;;5080371;28;19912;-67
2022/05/01 03:05:12;;;;;;;;;;;10.00;75.20;;;;;;5085223;28;19916;-67
2022/05/01 03:07:38;;;;;;;;;;;10.00;74.60;;;;;;5079369;28;19913;-68
2022/05/01 03:10:04;;;;;;;;;;;10.00;74.60;;;;;;5076343;28;20318;-67
2022/05/01 03:12:29;;;;;;;;;;;10.00;74.70;;;;;;5075420;28;20292;-67
2022/05/01 03:14:57;;;;;;;;;;;10.00;74.60;;;;;;5081484;28;20499;-67
2022/05/01 03:17:23;;;;;;;;;;;10.00;74.80;;;;;;5077214;28;20006;-67
2022/05/01 03:22:32;;;;;;;;;;;9.90;74.80;;;;;;5082536;28;19996;-67
2022/05/01 03:24:58;;;;;;;;;;;9.90;74.80;;;;;;5073445;28;19955;-67
2022/05/01 03:27:23;;;;;;;;;;;9.90;74.70;;;;;;5085620;28;19909;-67
2022/05/01 03:32:33;;;;;;;;;;;9.80;74.80;;;;;;5086979;28;19938;-67
2022/05/01 03:34:58;;;;;;;;;;;9.80;74.70;;;;;;5075501;28;19916;-67
2022/05/01 03:37:24;;;;;;;;;;;9.80;74.80;;;;;;5087506;28;19936;-67
2022/05/01 03:39:49;;;;;;;;;;;9.80;74.80;;;;;;5074815;28;20610;-67
2022/05/01 03:42:15;;;;;;;;;;;9.80;74.90;;;;;;5080081;28;19940;-67
2022/05/01 03:44:40;;;;;;;;;;;9.80;75.00;;;;;;5071873;28;19945;-67
2022/05/01 03:47:06;;;;;;;;;;;9.80;74.90;;;;;;5080083;28;19919;-67
2022/05/01 03:49:31;;;;;;;;;;;9.80;74.90;;;;;;5076810;28;20003;-67
2022/05/01 03:51:57;;;;;;;;;;;9.80;75.00;;;;;;5085133;28;19916;-67
2022/05/01 03:54:24;;;;;;;;;;;9.70;75.60;;;;;;5076927;28;19908;-67
2022/05/01 03:56:49;;;;;;;;;;;9.70;74.90;;;;;;5075615;28;19958;-67
2022/05/01 03:59:15;;;;;;;;;;;9.70;75.00;;;;;;5074656;28;20349;-67
2022/05/01 04:01:42;;;;;;;;;;;9.70;74.90;;;;;;5082467;28;20383;-67
2022/05/01 04:04:08;;;;;;;;;;;9.70;75.00;;;;;;5078000;28;19951;-67
2022/05/01 04:06:33;;;;;;;;;;;9.60;74.90;;;;;;5077236;28;20778;-67
2022/05/01 04:09:00;;;;;;;;;;;9.60;74.70;;;;;;5074019;28;20011;-67
2022/05/01 04:11:25;;;;;;;;;;;9.60;74.90;;;;;;5071770;28;19947;-67
2022/05/01 04:13:51;;;;;;;;;;;9.60;75.00;;;;;;5077806;28;20297;-67
2022/05/01 04:16:16;;;;;;;;;;;9.60;74.90;;;;;;5079586;28;19926;-68
2022/05/01 04:18:42;;;;;;;;;;;9.60;75.00;;;;;;5088855;28;19923;-67
2022/05/01 04:21:07;;;;;;;;;;;9.60;75.00;;;;;;5071737;28;19955;-67
2022/05/01 04:23:33;;;;;;;;;;;9.60;75.00;;;;;;5089196;28;19908;-68
2022/05/01 04:25:58;;;;;;;;;;;9.60;75.00;;;;;;5074480;28;19920;-68
2022/05/01 04:28:24;;;;;;;;;;;9.50;75.00;;;;;;5088152;28;19919;-67
2022/05/01 04:30:50;;;;;;;;;;;9.50;75.00;;;;;;5071003;28;19912;-67
2022/05/01 04:33:16;;;;;;;;;;;9.50;75.00;;;;;;5082103;28;19983;-67
2022/05/01 04:35:43;;;;;;;;;;;9.50;74.90;;;;;;5079686;28;20389;-67
2022/05/01 04:38:11;;;;;;;;;;;9.50;75.00;;;;;;5075921;28;19955;-67
2022/05/01 04:40:40;;;;;;;;;;;9.50;75.10;;;;;;5077679;28;20038;-67
2022/05/01 04:43:09;;;;;;;;;;;9.50;75.10;;;;;;5072301;28;20323;-67
2022/05/01 04:45:42;;;;;;;;;;;9.40;75.00;;;;;;5072969;28;20317;-67
2022/05/01 04:48:08;;;;;;;;;;;9.40;75.10;;;;;;5076932;28;19920;-67
2022/05/01 04:50:34;;;;;;;;;;;9.40;75.10;;;;;;5071986;28;19916;-67
2022/05/01 04:53:02;;;;;;;;;;;9.40;75.00;;;;;;5073881;28;19916;-67
2022/05/01 04:55:28;;;;;;;;;;;9.40;75.10;;;;;;5071434;28;19909;-67
2022/05/01 04:57:54;;;;;;;;;;;9.40;75.10;;;;;;5067264;28;19926;-67
2022/05/01 05:00:20;;;;;;;;;;;9.40;75.20;;;;;;5083887;28;20563;-67
2022/05/01 05:02:49;;;;;;;;;;;9.40;75.10;;;;;;5074737;28;19924;-67
2022/05/01 05:05:15;;;;;;;;;;;9.40;75.20;;;;;;5076819;28;19912;-67
2022/05/01 05:07:41;;;;;;;;;;;9.40;75.20;;;;;;5075959;28;20345;-67
2022/05/01 05:10:07;;;;;;;;;;;9.40;75.20;;;;;;5078321;28;19916;-67
2022/05/01 05:12:34;;;;;;;;;;;9.40;75.10;;;;;;5075426;28;19924;-67
2022/05/01 05:15:00;;;;;;;;;;;9.40;75.10;;;;;;5077111;28;19916;-67
2022/05/01 05:17:27;;;;;;;;;;;9.30;75.20;;;;;;5067936;28;19969;-67
2022/05/01 05:19:53;;;;;;;;;;;9.40;75.30;;;;;;5078803;28;19923;-67
2022/05/01 05:22:19;;;;;;;;;;;9.30;75.20;;;;;;5080144;28;19959;-67
2022/05/01 05:24:44;;;;;;;;;;;9.30;75.20;;;;;;5075213;28;19948;-67
2022/05/01 05:27:10;;;;;;;;;;;9.30;75.20;;;;;;5076885;28;20568;-67
2022/05/01 05:29:35;;;;;;;;;;;9.30;75.20;;;;;;5069427;28;19931;-67
2022/05/01 05:32:01;;;;;;;;;;;9.30;75.30;;;;;;5066740;28;20716;-67
2022/05/01 05:34:27;;;;;;;;;;;9.30;75.50;;;;;;5075954;28;20325;-67
2022/05/01 05:36:53;;;;;;;;;;;9.30;75.40;;;;;;5075198;28;19916;-67
2022/05/01 05:39:18;;;;;;;;;;;9.40;75.50;;;;;;5076794;28;19948;-67
2022/05/01 05:41:44;;;;;;;;;;;9.30;75.40;;;;;;5091461;28;19916;-67
2022/05/01 05:44:09;;;;;;;;;;;9.30;75.40;;;;;;5076477;28;20054;-67
2022/05/01 05:46:35;;;;;;;;;;;9.30;75.50;;;;;;5085338;28;19912;-67
2022/05/01 05:49:00;;;;;;;;;;;9.30;75.60;;;;;;5081222;28;19923;-67
2022/05/01 05:51:26;;;;;;;;;;;9.30;75.40;;;;;;5079025;28;20356;-67
2022/05/01 05:53:52;;;;;;;;;;;9.30;75.60;;;;;;5078296;28;19916;-67
2022/05/01 05:56:18;;;;;;;;;;;9.30;75.60;;;;;;5081469;28;19994;-67
2022/05/01 05:58:44;;;;;;;;;;;9.30;75.60;;;;;;5074426;28;20034;-67
2022/05/01 06:01:10;;;;;;;;;;;9.40;75.60;;;;;;5070841;28;20054;-67
2022/05/01 06:03:36;;;;;;;;;;;9.40;75.40;;;;;;5075725;28;19912;-67
2022/05/01 06:06:01;;;;;;;;;;;9.30;75.30;;;;;;5074491;28;19977;-67
2022/05/01 06:08:27;;;;;;;;;;;9.30;75.50;;;;;;5079694;28;20606;-67
2022/05/01 06:10:52;;;;;;;;;;;9.30;75.50;;;;;;5079505;28;19918;-67
2022/05/01 06:13:18;;;;;;;;;;;9.30;75.50;;;;;;5082489;28;19927;-67
2022/05/01 06:15:43;;;;;;;;;;;9.30;75.60;;;;;;5076428;28;20572;-67
2022/05/01 06:18:10;;;;;;;;;;;9.40;75.70;;;;;;5086656;28;19919;-67
2022/05/01 06:20:36;;;;;;;;;;;9.40;75.70;;;;;;5077161;28;20335;-67
2022/05/01 06:23:02;;;;;;;;;;;9.40;75.60;;;;;;5082480;28;19938;-67
2022/05/01 06:25:27;;;;;;;;;;;9.50;75.60;;;;;;5079343;28;20356;-67
2022/05/01 06:27:53;;;;;;;;;;;9.50;75.60;;;;;;5086010;28;19923;-67
2022/05/01 06:30:18;;;;;;;;;;;9.60;75.40;;;;;;5077216;28;19924;-67
2022/05/01 06:32:44;;;;;;;;;;;9.60;75.50;;;;;;5080857;28;19965;-67
2022/05/01 06:35:09;;;;;;;;;;;9.60;75.30;;;;;;5072814;28;19912;-67
2022/05/01 06:37:36;;;;;;;;;;;9.60;75.30;;;;;;5078560;28;19916;-67
2022/05/01 06:40:03;;;;;;;;;;;9.70;75.40;;;;;;5084404;28;19916;-67
2022/05/01 06:42:30;;;;;;;;;;;9.70;75.40;;;;;;5084198;28;19920;-67
2022/05/01 06:44:55;;;;;;;;;;;9.80;75.40;;;;;;5073096;28;19916;-67
2022/05/01 06:47:20;;;;;;;;;;;9.80;75.30;;;;;;5077341;28;19916;-67
2022/05/01 06:49:46;;;;;;;;;;;9.90;75.20;;;;;;5080480;28;19920;-67
2022/05/01 06:52:12;;;;;;;;;;;9.90;75.10;;;;;;5074502;28;19916;-67
2022/05/01 06:54:38;;;;;;;;;;;10.00;75.10;;;;;;5087475;28;20490;-67
2022/05/01 06:57:04;;;;;;;;;;;10.00;75.00;;;;;;5079948;28;19999;-67
2022/05/01 06:59:29;;;;;;;;;;;10.00;74.70;;;;;;5090721;28;19998;-67
2022/05/01 07:01:55;;;;;;;;;;;10.10;74.70;;;;;;5079349;28;19913;-67
2022/05/01 07:04:20;;;;;;;;;;;10.10;74.70;;;;;;5082677;28;19951;-67
2022/05/01 07:06:46;;;;;;;;;;;10.20;74.60;;;;;;5079087;28;20429;-67
2022/05/01 07:09:11;;;;;;;;;;;10.20;74.50;;;;;;5084461;28;19912;-67
2022/05/01 07:11:37;;;;;;;;;;;10.30;74.40;;;;;;5081205;28;19912;-67
2022/05/01 07:14:03;;;;;;;;;;;10.30;74.40;;;;;;5082801;28;20573;-67
2022/05/01 07:16:28;;;;;;;;;;;10.40;74.30;;;;;;5080830;28;19924;-67
2022/05/01 07:18:54;;;;;;;;;;;10.40;74.30;;;;;;5078082;28;19924;-67
2022/05/01 07:21:20;;;;;;;;;;;10.50;74.20;;;;;;5082489;28;20831;-67
2022/05/01 07:23:45;;;;;;;;;;;10.50;74.20;;;;;;5075091;28;19923;-67
2022/05/01 07:26:11;;;;;;;;;;;10.50;74.10;;;;;;5074885;28;19912;-67
2022/05/01 07:28:36;;;;;;;;;;;10.60;74.00;;;;;;5076739;28;20526;-67
2022/05/01 07:31:04;;;;;;;;;;;10.70;73.90;;;;;;5078212;28;19956;-67
2022/05/01 07:33:30;;;;;;;;;;;10.70;73.90;;;;;;5077891;28;19920;-67
2022/05/01 07:35:57;;;;;;;;;;;10.80;73.70;;;;;;5083318;28;19912;-67
2022/05/01 07:38:23;;;;;;;;;;;10.80;73.50;;;;;;5071625;28;19940;-67
2022/05/01 07:40:49;;;;;;;;;;;10.80;73.40;;;;;;5081925;28;19951;-67
2022/05/01 07:43:15;;;;;;;;;;;10.90;73.40;;;;;;5080714;28;19974;-67
2022/05/01 07:45:41;;;;;;;;;;;11.00;73.40;;;;;;5085956;28;19912;-67
2022/05/01 07:48:06;;;;;;;;;;;11.00;73.30;;;;;;5084465;28;19927;-67
2022/05/01 07:50:32;;;;;;;;;;;11.00;73.10;;;;;;5083657;28;20003;-67
2022/05/01 07:52:57;;;;;;;;;;;11.10;73.10;;;;;;5081983;28;19920;-67
2022/05/01 07:55:23;;;;;;;;;;;11.20;72.90;;;;;;5078863;28;19999;-67
2022/05/01 07:57:48;;;;;;;;;;;11.20;72.80;;;;;;5078016;28;19913;-67
2022/05/01 08:00:14;;;;;;;;;;;11.30;72.70;;;;;;5081587;28;19924;-67
2022/05/01 08:05:24;;;;;;;;;;;11.40;72.50;;;;;;5078824;28;19998;-67
2022/05/01 08:07:50;;;;;;;;;;;11.40;72.50;;;;;;5072912;28;20378;-67
2022/05/01 08:10:16;;;;;;;;;;;11.40;72.40;;;;;;5076903;28;20312;-67
2022/05/01 08:12:41;;;;;;;;;;;11.40;72.50;;;;;;5078876;28;19927;-67
2022/05/01 08:15:08;;;;;;;;;;;11.50;72.50;;;;;;5075764;28;19915;-67
2022/05/01 08:17:34;;;;;;;;;;;11.50;72.50;;;;;;5082358;28;19993;-67
2022/05/01 08:22:43;;;;;;;;;;;11.60;72.40;;;;;;5080867;28;19916;-67
2022/05/01 08:25:09;;;;;;;;;;;11.70;72.10;;;;;;5078402;28;19908;-67
2022/05/01 08:27:34;;;;;;;;;;;11.80;72.10;;;;;;5080233;28;19947;-67
2022/05/01 08:30:00;;;;;;;;;;;11.90;71.80;;;;;;5076597;28;19938;-67
2022/05/01 08:32:26;;;;;;;;;;;12.10;71.70;;;;;;5080772;28;19935;-67
2022/05/01 08:34:52;;;;;;;;;;;12.10;71.20;;;;;;5078413;28;19912;-67
2022/05/01 08:37:18;;;;;;;;;;;12.30;71.10;;;;;;5076603;28;19912;-67
2022/05/01 08:39:43;;;;;;;;;;;12.40;70.80;;;;;;5072191;28;19920;-67
2022/05/01 08:42:09;;;;;;;;;;;12.50;70.90;;;;;;5068782;28;19917;-67
2022/05/01 08:44:36;;;;;;;;;;;12.60;70.50;;;;;;5073753;28;20452;-67
2022/05/01 08:47:20;;;;;;;;;;;12.60;70.40;;;;;;5076531;28;19936;-67
2022/05/01 08:49:48;;;;;;;;;;;12.60;70.30;;;;;;5074459;28;19938;-67
2022/05/01 08:52:14;;;;;;;;;;;12.70;70.70;;;;;;5082706;28;19912;-67
2022/05/01 08:54:39;;;;;;;;;;;12.80;70.40;;;;;;5079684;28;19912;-67
2022/05/01 08:57:05;;;;;;;;;;;12.80;70.60;;;;;;5064955;28;21310;-67
2022/05/01 08:59:31;;;;;;;;;;;12.80;70.20;;;;;;5079279;28;19924;-67
2022/05/01 09:01:58;;;;;;;;;;;12.90;70.10;;;;;;5078721;28;19969;-68
2022/05/01 09:04:25;;;;;;;;;;;12.90;70.10;;;;;;5081730;28;19915;-67
2022/05/01 09:06:51;;;;;;;;;;;13.00;70.00;;;;;;5071486;28;19912;-67
2022/05/01 09:09:17;;;;;;;;;;;13.00;70.00;;;;;;5078669;28;19957;-67
2022/05/01 09:14:27;;;;;;;;;;;13.10;70.00;;;;;;5078740;28;20359;-68
2022/05/01 09:17:13;;;;;;;;;;;13.20;69.80;;;;;;5072083;28;19916;-67
2022/05/01 09:19:39;;;;;;;;;;;13.20;69.50;;;;;;5079895;28;20023;-67
2022/05/01 09:22:04;;;;;;;;;;;13.30;69.50;;;;;;5079853;28;19976;-68
2022/05/01 09:24:30;;;;;;;;;;;13.40;69.40;;;;;;5077533;28;20317;-67
2022/05/01 09:26:56;;;;;;;;;;;13.40;69.20;;;;;;5072822;28;19913;-68
2022/05/01 09:29:22;;;;;;;;;;;13.50;69.20;;;;;;5067586;28;20280;-68
2022/05/01 09:31:55;;;;;;;;;;;13.50;69.20;;;;;;5085105;28;20383;-68
2022/05/01 09:34:21;;;;;;;;;;;13.60;69.30;;;;;;5072735;28;19923;-68
2022/05/01 09:36:47;;;;;;;;;;;13.60;69.00;;;;;;5071512;28;20007;-68
2022/05/01 09:39:19;;;;;;;;;;;13.60;69.20;;;;;;5070895;28;20456;-68
2022/05/01 09:41:45;;;;;;;;;;;13.70;68.90;;;;;;5079849;28;19947;-68
2022/05/01 09:44:14;;;;;;;;;;;13.80;68.70;;;;;;5078576;28;19933;-68
2022/05/01 09:46:40;;;;;;;;;;;13.80;68.80;;;;;;5070985;28;20008;-68
2022/05/01 09:49:07;;;;;;;;;;;13.90;68.90;;;;;;5074656;28;19966;-68
2022/05/01 09:51:33;;;;;;;;;;;13.90;68.70;;;;;;5077959;28;19935;-68
2022/05/01 09:53:59;;;;;;;;;;;13.90;68.60;;;;;;5073977;28;20384;-68
2022/05/01 09:56:25;;;;;;;;;;;14.00;68.60;;;;;;5083039;28;20674;-68
2022/05/01 09:59:01;;;;;;;;;;;14.00;68.40;;;;;;5073410;28;19913;-68
2022/05/01 10:01:28;;;;;;;;;;;14.10;68.40;;;;;;5079085;28;20444;-68
2022/05/01 10:03:53;;;;;;;;;;;14.10;69.00;;;;;;5074820;28;19915;-68
2022/05/01 10:06:19;;;;;;;;;;;14.10;68.30;;;;;;5086127;28;19912;-68
2022/05/01 10:08:45;;;;;;;;;;;14.20;68.30;;;;;;5073026;27;19917;-68
2022/05/01 10:11:14;;;;;;;;;;;14.20;68.20;;;;;;5076475;28;19912;-68
2022/05/01 10:13:40;;;;;;;;;;;14.30;68.30;;;;;;5079632;28;20424;-68
2022/05/01 10:16:08;;;;;;;;;;;14.30;68.10;;;;;;5072399;28;19912;-68
2022/05/01 10:18:33;;;;;;;;;;;14.30;68.00;;;;;;5078656;28;19908;-68
2022/05/01 10:20:59;;;;;;;;;;;14.40;68.20;;;;;;5085392;28;20595;-68
2022/05/01 10:23:25;;;;;;;;;;;14.40;68.00;;;;;;5082979;28;19921;-68
2022/05/01 10:25:52;;;;;;;;;;;14.40;68.00;;;;;;5076255;28;19948;-68
2022/05/01 10:28:27;;;;;;;;;;;14.50;68.00;;;;;;5088259;28;20662;-68
2022/05/01 10:34:15;;;;;;;;;;;14.50;68.00;;;;;;5076662;28;19923;-68
2022/05/01 10:36:43;;;;;;;;;;;14.50;67.90;;;;;;5055935;28;19938;-68
2022/05/01 10:39:09;;;;;;;;;;;14.60;67.90;;;;;;5075667;28;19916;-68
2022/05/01 10:41:42;;;;;;;;;;;14.60;67.80;;;;;;5076524;28;19923;-68
2022/05/01 10:44:07;;;;;;;;;;;14.60;67.70;;;;;;5071692;28;19947;-68
2022/05/01 10:46:33;;;;;;;;;;;14.70;67.80;;;;;;5078353;28;19959;-68
2022/05/01 10:49:03;;;;;;;;;;;14.60;67.60;;;;;;5082550;28;19973;-68
2022/05/01 10:51:31;;;;;;;;;;;14.70;67.60;;;;;;5077923;28;19916;-68
2022/05/01 10:54:15;;;;;;;;;;;14.70;67.40;;;;;;5078634;28;19912;-68
2022/05/01 10:56:42;;;;;;;;;;;14.80;67.50;;;;;;5074727;28;20324;-68
2022/05/01 10:59:26;;;;;;;;;;;14.80;67.50;;;;;;5080399;28;20002;-68
2022/05/01 11:01:53;;;;;;;;;;;14.80;67.30;;;;;;5070595;28;19917;-68
2022/05/01 11:04:21;;;;;;;;;;;14.90;67.30;;;;;;5078628;28;19978;-68
2022/05/01 11:06:53;;;;;;;;;;;14.90;67.20;;;;;;5078473;28;20003;-68
2022/05/01 11:09:19;;;;;;;;;;;15.00;67.40;;;;;;5083915;28;19920;-68
2022/05/01 11:11:45;;;;;;;;;;;15.00;67.20;;;;;;5075202;28;19920;-68
2022/05/01 11:14:12;;;;;;;;;;;15.10;67.00;;;;;;5084122;28;20365;-68
2022/05/01 11:16:50;;;;;;;;;;;15.10;66.90;;;;;;5080765;28;19912;-68
2022/05/01 11:19:16;;;;;;;;;;;15.20;66.70;;;;;;5085823;28;20516;-68
2022/05/01 11:21:46;;;;;;;;;;;15.30;66.80;;;;;;5085336;27;19924;-68
2022/05/01 11:24:15;;;;;;;;;;;15.30;66.70;;;;;;5080382;28;19943;-68
2022/05/01 11:27:00;;;;;;;;;;;15.30;66.50;;;;;;5074158;28;19916;-68
2022/05/01 11:29:26;;;;;;;;;;;15.40;66.70;;;;;;5080605;28;19917;-68
2022/05/01 11:31:52;;;;;;;;;;;15.40;66.30;;;;;;5081030;28;19969;-68
2022/05/01 11:34:21;;;;;;;;;;;15.50;66.10;;;;;;5075675;28;20015;-68
2022/05/01 11:37:03;;;;;;;;;;;15.50;65.90;;;;;;5079355;28;20022;-68
2022/05/01 11:39:50;;;;;;;;;;;15.60;66.00;;;;;;5081425;28;19930;-69
2022/05/01 11:42:29;;;;;;;;;;;15.70;65.80;;;;;;5081902;28;19920;-68
2022/05/01 11:44:55;;;;;;;;;;;15.70;65.80;;;;;;5079404;28;20022;-68
2022/05/01 11:47:22;;;;;;;;;;;15.80;65.70;;;;;;5083698;28;19952;-68
2022/05/01 11:49:47;;;;;;;;;;;15.80;65.60;;;;;;5085259;28;19920;-68
2022/05/01 11:52:13;;;;;;;;;;;16.00;65.50;;;;;;5082018;28;19916;-68
2022/05/01 11:55:08;;;;;;;;;;;16.10;65.10;;;;;;5075610;28;20368;-69
2022/05/01 12:02:55;;;;;;;;;;;16.60;64.40;;;;;;5081404;28;19966;-68
2022/05/01 12:05:20;;;;;;;;;;;16.70;64.10;;;;;;5077792;28;19970;-68
2022/05/01 12:07:55;;;;;;;;;;;16.80;63.80;;;;;;5083498;28;20200;-68
2022/05/01 12:10:21;;;;;;;;;;;16.90;63.50;;;;;;5076860;28;19939;-68
2022/05/01 12:12:46;;;;;;;;;;;17.00;63.40;;;;;;5078907;28;20546;-68
2022/05/01 12:15:12;;;;;;;;;;;17.00;63.40;;;;;;5079377;28;20524;-68
2022/05/01 12:17:41;;;;;;;;;;;17.10;63.20;;;;;;5084277;28;19912;-68
2022/05/01 12:20:07;;;;;;;;;;;17.10;63.00;;;;;;5095331;28;20007;-68
2022/05/01 12:22:37;;;;;;;;;;;17.10;62.80;;;;;;5084622;28;20447;-68
2022/05/01 12:25:07;;;;;;;;;;;17.20;62.60;;;;;;5077170;28;19913;-68
2022/05/01 12:27:33;;;;;;;;;;;17.30;62.40;;;;;;5080295;28;20249;-68
2022/05/01 12:30:00;;;;;;;;;;;17.30;62.50;;;;;;5075638;28;19916;-68
2022/05/01 12:32:26;;;;;;;;;;;17.30;62.70;;;;;;5087107;28;20766;-68
2022/05/01 12:34:52;;;;;;;;;;;17.30;62.90;;;;;;5078974;28;19916;-68
2022/05/01 12:37:18;;;;;;;;;;;17.30;63.10;;;;;;5083295;28;19908;-68
2022/05/01 12:39:55;;;;;;;;;;;17.30;63.10;;;;;;5075769;28;19962;-68
2022/05/01 12:45:10;;;;;;;;;;;17.20;63.40;;;;;;5072663;28;20050;-68
2022/05/01 12:47:39;;;;;;;;;;;17.20;63.50;;;;;;5081163;28;19999;-68
2022/05/01 12:50:22;;;;;;;;;;;17.20;63.80;;;;;;5074223;28;19973;-68
2022/05/01 12:52:49;;;;;;;;;;;17.10;64.00;;;;;;5080663;28;19958;-68
2022/05/01 12:55:19;;;;;;;;;;;17.10;64.30;;;;;;5076944;28;19916;-68
2022/05/01 12:57:58;;;;;;;;;;;17.00;64.10;;;;;;5084891;28;19915;-68
2022/05/01 13:00:29;;;;;;;;;;;17.00;64.00;;;;;;5084338;28;19993;-69
2022/05/01 13:03:13;;;;;;;;;;;17.00;64.20;;;;;;5075980;28;19923;-68
2022/05/01 13:05:39;;;;;;;;;;;17.00;64.30;;;;;;5077156;28;19961;-69
2022/05/01 13:08:17;;;;;;;;;;;17.00;64.20;;;;;;5083853;28;19916;-68
2022/05/01 13:10:43;;;;;;;;;;;17.00;64.30;;;;;;5073088;28;19919;-68
2022/05/01 13:13:08;;;;;;;;;;;17.00;64.00;;;;;;5068139;28;19921;-69
2022/05/01 13:15:38;;;;;;;;;;;17.00;64.30;;;;;;5069222;28;20307;-69
2022/05/01 13:18:03;;;;;;;;;;;17.00;64.10;;;;;;5078656;28;19938;-68
2022/05/01 13:20:29;;;;;;;;;;;17.10;63.90;;;;;;5078580;28;20408;-68
2022/05/01 13:22:54;;;;;;;;;;;17.10;63.80;;;;;;5077116;28;19921;-68
2022/05/01 13:25:20;;;;;;;;;;;17.10;63.90;;;;;;5073372;28;19916;-69
2022/05/01 13:27:45;;;;;;;;;;;17.10;63.70;;;;;;5075378;28;19912;-69
2022/05/01 13:30:11;;;;;;;;;;;17.10;63.70;;;;;;5069799;28;19908;-69
2022/05/01 13:32:37;;;;;;;;;;;17.10;63.70;;;;;;5077203;28;19916;-68
2022/05/01 13:35:02;;;;;;;;;;;17.10;64.00;;;;;;5087476;28;20031;-68
2022/05/01 13:37:30;;;;;;;;;;;17.10;63.70;;;;;;5075465;28;20539;-68
2022/05/01 13:45:24;;;;;;;;;;;17.00;63.90;;;;;;5084610;28;20525;-68
2022/05/01 13:47:50;;;;;;;;;;;17.00;64.20;;;;;;5070121;28;19916;-68
2022/05/01 13:50:15;;;;;;;;;;;17.00;64.30;;;;;;5082582;28;20007;-69
2022/05/01 13:52:41;;;;;;;;;;;17.00;64.20;;;;;;5072853;28;19959;-69
2022/05/01 13:55:07;;;;;;;;;;;17.00;64.30;;;;;;5075806;28;20011;-69
2022/05/01 13:57:34;;;;;;;;;;;17.00;64.60;;;;;;5079125;28;20400;-68
2022/05/01 14:00:00;;;;;;;;;;;16.90;64.70;;;;;;5076553;28;19965;-69
2022/05/01 14:02:25;;;;;;;;;;;17.00;64.50;;;;;;5076146;28;19912;-68
2022/05/01 14:04:51;;;;;;;;;;;17.00;64.50;;;;;;5080050;28;19912;-69
2022/05/01 14:07:17;;;;;;;;;;;16.90;64.40;;;;;;5081159;28;20417;-68
2022/05/01 14:09:42;;;;;;;;;;;16.90;65.20;;;;;;5076616;28;19915;-69
2022/05/01 14:12:09;;;;;;;;;;;16.90;64.60;;;;;;5082491;28;19982;-68
2022/05/01 14:14:34;;;;;;;;;;;17.00;64.50;;;;;;5071773;28;20275;-68
2022/05/01 14:17:00;;;;;;;;;;;17.00;64.50;;;;;;5091613;28;19912;-69
2022/05/01 14:19:27;;;;;;;;;;;17.00;64.50;;;;;;5079085;28;19942;-68
2022/05/01 14:21:55;;;;;;;;;;;17.10;64.20;;;;;;5078982;28;19919;-68
2022/05/01 14:24:21;;;;;;;;;;;17.00;64.10;;;;;;5086633;28;19975;-69
2022/05/01 14:26:47;;;;;;;;;;;17.10;64.50;;;;;;5089783;28;20895;-69
2022/05/01 14:29:12;;;;;;;;;;;17.10;64.30;;;;;;5075059;28;19912;-69
2022/05/01 14:31:45;;;;;;;;;;;17.10;64.30;;;;;;5082858;28;19923;-68
2022/05/01 14:34:19;;;;;;;;;;;17.00;64.20;;;;;;5079359;28;19913;-69
2022/05/01 14:36:47;;;;;;;;;;;17.00;64.00;;;;;;5079967;28;19947;-68
2022/05/01 14:39:13;;;;;;;;;;;17.00;64.20;;;;;;5075689;28;19912;-68
2022/05/01 14:41:46;;;;;;;;;;;17.00;64.40;;;;;;5078975;28;19916;-69
2022/05/01 14:44:12;;;;;;;;;;;17.00;64.70;;;;;;5074936;28;19915;-68
2022/05/01 14:46:48;;;;;;;;;;;17.00;64.60;;;;;;5071312;28;19920;-68
2022/05/01 14:49:19;;;;;;;;;;;17.00;64.50;;;;;;5084516;28;19943;-68
2022/05/01 14:51:48;;;;;;;;;;;17.00;64.30;;;;;;5078505;28;19924;-69
2022/05/01 14:54:14;;;;;;;;;;;17.00;64.30;;;;;;5084215;28;19912;-69
2022/05/01 14:56:39;;;;;;;;;;;17.10;64.10;;;;;;5077156;28;19920;-69
2022/05/01 15:07:22;;;;;;;;;;;17.20;64.40;;;;;;5078043;28;20107;-68
2022/05/01 15:09:49;;;;;;;;;;;17.20;64.30;;;;;;5080542;28;19913;-69
2022/05/01 15:12:16;;;;;;;;;;;17.20;64.10;;;;;;5077695;28;20008;-69